Stazione di Stoppiaro di poggio rusco

TIPO ST.elettronica
SENSORITemperatura Pioggia Umidità Vento

Stazione di Stoppiaro di poggio rusco
Data Ora Temp. Min ° Temp. Max ° Umid. Min% Umid. Max% Pioggia mm Vel. Vento m/s Dir. Vento °
08/05/2021 00:00:00 15.8 16.5 78 79 0.00 0.00 0
08/05/2021 01:00:00 15.0 15.7 78 79 0.00 0.00 0
08/05/2021 02:00:00 14.7 15.2 79 84 0.00 0.00 0
08/05/2021 03:00:00 14.1 14.6 85 85 0.00 0.00 0
08/05/2021 04:00:00 12.6 14.1 84 85 0.00 0.00 0
08/05/2021 05:00:00 11.9 12.3 82 84 0.00 0.00 0
08/05/2021 06:00:00 11.5 13.7 73 83 0.00 0.00 0
08/05/2021 07:00:00 13.7 14.7 67 73 0.00 0.00 0
08/05/2021 08:00:00 15.2 16.9 60 67 0.00 0.00 0
08/05/2021 09:00:00 16.9 17.7 58 61 0.00 0.00 0
08/05/2021 10:00:00 17.4 18.0 57 60 0.00 0.00 0
08/05/2021 11:00:00 17.8 19.4 55 59 0.00 0.00 0
08/05/2021 12:00:00 19.0 20.4 54 58 0.00 0.00 0
08/05/2021 13:00:00 20.4 23.0 46 54 0.00 0.00 0
08/05/2021 14:00:00 22.1 23.2 44 47 0.00 0.00 0
08/05/2021 15:00:00 21.4 24.0 43 49 0.00 0.00 0
08/05/2021 16:00:00 22.8 24.7 41 47 0.00 0.00 0
08/05/2021 17:00:00 23.3 23.9 44 47 0.00 0.00 0
08/05/2021 18:00:00 22.1 23.3 47 51 0.00 0.00 0
08/05/2021 19:00:00 20.4 21.8 51 56 0.00 0.00 0
08/05/2021 20:00:00 17.8 20.1 58 63 0.00 0.00 0
08/05/2021 21:00:00 16.1 17.7 63 66 0.00 0.00 0
08/05/2021 22:00:00 14.3 15.8 67 72 0.00 0.00 0
08/05/2021 23:00:00 13.5 14.2 72 75 0.00 0.00 0

Stazione di Stoppiaro di poggio rusco

Temperatura minima media

17.08 °

Temperatura massima media

18.37 °

Picco minimo temperatura

11.5 °

Picco massima temperatura

24.7 °

Umidità minima media

62 %

Umidità massima media

66 %

Pioggia

0 mm

Ore pioggia

0